sensor_id;sensor_type;location;lat;lon;timestamp;P1;durP1;ratioP1;P2;durP2;ratioP2
18503;SDS011;9381;54.244;10.074;2024-01-15T00:01:48;8.83;;;2.03;;
18503;SDS011;9381;54.244;10.074;2024-01-15T00:06:49;15.00;;;2.27;;
18503;SDS011;9381;54.244;10.074;2024-01-15T00:11:49;11.97;;;1.90;;
18503;SDS011;9381;54.244;10.074;2024-01-15T00:16:50;7.23;;;1.87;;
18503;SDS011;9381;54.244;10.074;2024-01-15T00:21:51;8.87;;;2.17;;
18503;SDS011;9381;54.244;10.074;2024-01-15T00:26:51;8.60;;;2.00;;
18503;SDS011;9381;54.244;10.074;2024-01-15T00:31:53;7.97;;;2.13;;
18503;SDS011;9381;54.244;10.074;2024-01-15T00:36:53;9.70;;;1.80;;
18503;SDS011;9381;54.244;10.074;2024-01-15T00:41:54;13.47;;;1.97;;
18503;SDS011;9381;54.244;10.074;2024-01-15T00:46:54;13.27;;;2.37;;
18503;SDS011;9381;54.244;10.074;2024-01-15T00:51:54;12.37;;;3.37;;
18503;SDS011;9381;54.244;10.074;2024-01-15T00:56:55;12.27;;;2.67;;
18503;SDS011;9381;54.244;10.074;2024-01-15T01:01:55;10.73;;;2.30;;
18503;SDS011;9381;54.244;10.074;2024-01-15T01:06:55;18.73;;;2.93;;
18503;SDS011;9381;54.244;10.074;2024-01-15T01:11:56;14.83;;;3.00;;
18503;SDS011;9381;54.244;10.074;2024-01-15T01:16:56;27.07;;;3.50;;
18503;SDS011;9381;54.244;10.074;2024-01-15T01:21:57;18.07;;;3.40;;
18503;SDS011;9381;54.244;10.074;2024-01-15T01:26:57;23.80;;;4.37;;
18503;SDS011;9381;54.244;10.074;2024-01-15T01:31:57;22.90;;;3.73;;
18503;SDS011;9381;54.244;10.074;2024-01-15T01:36:58;19.93;;;3.73;;
18503;SDS011;9381;54.244;10.074;2024-01-15T01:41:58;24.60;;;5.07;;
18503;SDS011;9381;54.244;10.074;2024-01-15T01:46:59;26.27;;;3.63;;
18503;SDS011;9381;54.244;10.074;2024-01-15T01:52:00;16.70;;;2.87;;
18503;SDS011;9381;54.244;10.074;2024-01-15T01:57:02;22.60;;;4.57;;
18503;SDS011;9381;54.244;10.074;2024-01-15T02:02:05;21.97;;;3.50;;
18503;SDS011;9381;54.244;10.074;2024-01-15T02:07:06;18.23;;;4.47;;
18503;SDS011;9381;54.244;10.074;2024-01-15T02:12:07;17.27;;;3.17;;
18503;SDS011;9381;54.244;10.074;2024-01-15T02:17:07;14.50;;;3.73;;
18503;SDS011;9381;54.244;10.074;2024-01-15T02:22:07;19.83;;;4.57;;
18503;SDS011;9381;54.244;10.074;2024-01-15T02:27:08;17.20;;;3.47;;
18503;SDS011;9381;54.244;10.074;2024-01-15T02:32:08;19.67;;;3.53;;
18503;SDS011;9381;54.244;10.074;2024-01-15T02:37:09;13.77;;;3.50;;
18503;SDS011;9381;54.244;10.074;2024-01-15T02:42:09;17.83;;;3.47;;
18503;SDS011;9381;54.244;10.074;2024-01-15T02:47:10;14.40;;;3.00;;
18503;SDS011;9381;54.244;10.074;2024-01-15T02:52:10;15.47;;;3.37;;
18503;SDS011;9381;54.244;10.074;2024-01-15T02:57:10;16.80;;;3.53;;
18503;SDS011;9381;54.244;10.074;2024-01-15T03:02:10;15.90;;;3.47;;
18503;SDS011;9381;54.244;10.074;2024-01-15T03:07:11;19.60;;;3.63;;
18503;SDS011;9381;54.244;10.074;2024-01-15T03:12:12;22.97;;;4.00;;
18503;SDS011;9381;54.244;10.074;2024-01-15T03:17:12;14.65;;;3.38;;
18503;SDS011;9381;54.244;10.074;2024-01-15T03:22:13;8.53;;;2.30;;
18503;SDS011;9381;54.244;10.074;2024-01-15T03:27:13;12.80;;;2.50;;
18503;SDS011;9381;54.244;10.074;2024-01-15T03:32:13;16.20;;;2.50;;
18503;SDS011;9381;54.244;10.074;2024-01-15T03:37:16;14.93;;;3.30;;
18503;SDS011;9381;54.244;10.074;2024-01-15T03:42:16;14.63;;;2.50;;
18503;SDS011;9381;54.244;10.074;2024-01-15T03:47:16;17.90;;;2.93;;
18503;SDS011;9381;54.244;10.074;2024-01-15T03:52:17;13.27;;;2.23;;
18503;SDS011;9381;54.244;10.074;2024-01-15T03:57:17;13.43;;;2.70;;
18503;SDS011;9381;54.244;10.074;2024-01-15T04:02:17;10.17;;;2.67;;
18503;SDS011;9381;54.244;10.074;2024-01-15T04:07:18;15.10;;;2.63;;
18503;SDS011;9381;54.244;10.074;2024-01-15T04:12:18;15.50;;;2.67;;
18503;SDS011;9381;54.244;10.074;2024-01-15T04:17:18;13.00;;;2.70;;
18503;SDS011;9381;54.244;10.074;2024-01-15T04:22:19;15.73;;;3.43;;
18503;SDS011;9381;54.244;10.074;2024-01-15T04:27:19;20.10;;;3.13;;
18503;SDS011;9381;54.244;10.074;2024-01-15T04:32:20;18.55;;;3.75;;
18503;SDS011;9381;54.244;10.074;2024-01-15T04:37:20;15.10;;;3.40;;
18503;SDS011;9381;54.244;10.074;2024-01-15T04:42:21;15.07;;;3.47;;
18503;SDS011;9381;54.244;10.074;2024-01-15T04:47:21;15.40;;;3.27;;
18503;SDS011;9381;54.244;10.074;2024-01-15T04:52:21;12.23;;;2.83;;
18503;SDS011;9381;54.244;10.074;2024-01-15T04:57:22;16.37;;;3.60;;
18503;SDS011;9381;54.244;10.074;2024-01-15T05:02:22;19.40;;;3.50;;
18503;SDS011;9381;54.244;10.074;2024-01-15T05:07:22;17.70;;;4.07;;
18503;SDS011;9381;54.244;10.074;2024-01-15T05:12:23;18.50;;;3.87;;
18503;SDS011;9381;54.244;10.074;2024-01-15T05:17:23;15.80;;;3.43;;
18503;SDS011;9381;54.244;10.074;2024-01-15T05:22:23;21.97;;;3.80;;
18503;SDS011;9381;54.244;10.074;2024-01-15T05:27:25;18.57;;;3.63;;
18503;SDS011;9381;54.244;10.074;2024-01-15T05:32:25;12.30;;;3.83;;
18503;SDS011;9381;54.244;10.074;2024-01-15T05:37:26;15.13;;;3.80;;
18503;SDS011;9381;54.244;10.074;2024-01-15T05:42:26;17.50;;;3.77;;
18503;SDS011;9381;54.244;10.074;2024-01-15T05:47:26;24.73;;;4.70;;
18503;SDS011;9381;54.244;10.074;2024-01-15T05:52:27;20.23;;;3.10;;
18503;SDS011;9381;54.244;10.074;2024-01-15T05:57:27;22.77;;;3.73;;
18503;SDS011;9381;54.244;10.074;2024-01-15T06:02:28;18.50;;;3.57;;
18503;SDS011;9381;54.244;10.074;2024-01-15T06:07:28;11.73;;;3.40;;
18503;SDS011;9381;54.244;10.074;2024-01-15T06:12:28;23.83;;;3.50;;
18503;SDS011;9381;54.244;10.074;2024-01-15T06:17:29;15.90;;;3.93;;
18503;SDS011;9381;54.244;10.074;2024-01-15T06:22:29;13.27;;;3.77;;
18503;SDS011;9381;54.244;10.074;2024-01-15T06:27:29;22.93;;;4.03;;
18503;SDS011;9381;54.244;10.074;2024-01-15T06:32:30;20.87;;;3.40;;
18503;SDS011;9381;54.244;10.074;2024-01-15T06:37:30;16.50;;;3.63;;
18503;SDS011;9381;54.244;10.074;2024-01-15T06:42:32;15.50;;;3.40;;
18503;SDS011;9381;54.244;10.074;2024-01-15T06:47:33;18.47;;;3.63;;
18503;SDS011;9381;54.244;10.074;2024-01-15T06:52:33;19.23;;;3.87;;
18503;SDS011;9381;54.244;10.074;2024-01-15T06:57:33;21.20;;;3.83;;
18503;SDS011;9381;54.244;10.074;2024-01-15T07:02:34;18.30;;;3.40;;
18503;SDS011;9381;54.244;10.074;2024-01-15T07:07:34;16.27;;;3.47;;
18503;SDS011;9381;54.244;10.074;2024-01-15T07:12:36;16.83;;;3.37;;
18503;SDS011;9381;54.244;10.074;2024-01-15T07:17:36;15.93;;;3.67;;
18503;SDS011;9381;54.244;10.074;2024-01-15T07:22:39;14.57;;;3.33;;
18503;SDS011;9381;54.244;10.074;2024-01-15T07:27:39;18.52;;;3.55;;
18503;SDS011;9381;54.244;10.074;2024-01-15T07:32:42;13.87;;;3.53;;
18503;SDS011;9381;54.244;10.074;2024-01-15T07:37:43;16.90;;;3.77;;
18503;SDS011;9381;54.244;10.074;2024-01-15T07:42:43;16.80;;;3.77;;
18503;SDS011;9381;54.244;10.074;2024-01-15T07:47:43;29.20;;;5.10;;
18503;SDS011;9381;54.244;10.074;2024-01-15T07:52:45;12.73;;;3.90;;
18503;SDS011;9381;54.244;10.074;2024-01-15T07:57:45;18.67;;;4.00;;
18503;SDS011;9381;54.244;10.074;2024-01-15T08:02:46;18.47;;;3.90;;
18503;SDS011;9381;54.244;10.074;2024-01-15T08:07:46;13.17;;;3.47;;
18503;SDS011;9381;54.244;10.074;2024-01-15T08:12:47;19.10;;;3.83;;
18503;SDS011;9381;54.244;10.074;2024-01-15T08:17:47;11.68;;;3.20;;
18503;SDS011;9381;54.244;10.074;2024-01-15T08:22:47;12.00;;;2.73;;
18503;SDS011;9381;54.244;10.074;2024-01-15T08:27:48;7.23;;;2.20;;
18503;SDS011;9381;54.244;10.074;2024-01-15T08:32:48;7.57;;;2.00;;
18503;SDS011;9381;54.244;10.074;2024-01-15T08:37:49;9.05;;;2.30;;
18503;SDS011;9381;54.244;10.074;2024-01-15T08:42:49;8.77;;;1.60;;
18503;SDS011;9381;54.244;10.074;2024-01-15T08:47:50;6.57;;;1.67;;
18503;SDS011;9381;54.244;10.074;2024-01-15T08:52:50;10.20;;;1.90;;
18503;SDS011;9381;54.244;10.074;2024-01-15T08:57:50;5.47;;;1.73;;
18503;SDS011;9381;54.244;10.074;2024-01-15T09:02:51;9.70;;;1.92;;
18503;SDS011;9381;54.244;10.074;2024-01-15T09:07:51;5.65;;;1.90;;
18503;SDS011;9381;54.244;10.074;2024-01-15T09:12:54;4.67;;;1.50;;
18503;SDS011;9381;54.244;10.074;2024-01-15T09:17:54;5.97;;;1.52;;
18503;SDS011;9381;54.244;10.074;2024-01-15T09:22:57;3.20;;;1.70;;
18503;SDS011;9381;54.244;10.074;2024-01-15T09:27:57;2.22;;;1.55;;
18503;SDS011;9381;54.244;10.074;2024-01-15T09:32:58;10.07;;;1.80;;
18503;SDS011;9381;54.244;10.074;2024-01-15T09:37:58;4.83;;;1.87;;
18503;SDS011;9381;54.244;10.074;2024-01-15T09:42:58;8.10;;;1.73;;
18503;SDS011;9381;54.244;10.074;2024-01-15T09:48:00;3.13;;;1.53;;
18503;SDS011;9381;54.244;10.074;2024-01-15T09:53:00;6.97;;;1.77;;
18503;SDS011;9381;54.244;10.074;2024-01-15T09:58:01;8.03;;;2.30;;
18503;SDS011;9381;54.244;10.074;2024-01-15T10:03:02;3.60;;;1.67;;
18503;SDS011;9381;54.244;10.074;2024-01-15T10:08:03;2.93;;;1.50;;
18503;SDS011;9381;54.244;10.074;2024-01-15T10:13:04;4.57;;;1.60;;
18503;SDS011;9381;54.244;10.074;2024-01-15T10:18:07;5.23;;;1.73;;
18503;SDS011;9381;54.244;10.074;2024-01-15T10:23:07;6.77;;;2.07;;
18503;SDS011;9381;54.244;10.074;2024-01-15T10:28:07;3.63;;;1.67;;
18503;SDS011;9381;54.244;10.074;2024-01-15T10:33:08;6.07;;;1.70;;
18503;SDS011;9381;54.244;10.074;2024-01-15T10:38:08;3.80;;;1.50;;
18503;SDS011;9381;54.244;10.074;2024-01-15T10:43:09;5.53;;;1.90;;
18503;SDS011;9381;54.244;10.074;2024-01-15T10:48:09;5.83;;;1.67;;
18503;SDS011;9381;54.244;10.074;2024-01-15T10:53:11;3.77;;;1.47;;
18503;SDS011;9381;54.244;10.074;2024-01-15T10:58:12;3.17;;;1.60;;
18503;SDS011;9381;54.244;10.074;2024-01-15T11:03:14;4.17;;;1.50;;
18503;SDS011;9381;54.244;10.074;2024-01-15T11:08:17;3.50;;;1.60;;
18503;SDS011;9381;54.244;10.074;2024-01-15T11:18:18;5.43;;;4.70;;
18503;SDS011;9381;54.244;10.074;2024-01-15T11:28:49;6.43;;;1.30;;
18503;SDS011;9381;54.244;10.074;2024-01-15T11:33:49;3.93;;;1.53;;
18503;SDS011;9381;54.244;10.074;2024-01-15T11:38:50;5.13;;;2.00;;
18503;SDS011;9381;54.244;10.074;2024-01-15T11:43:50;6.43;;;2.15;;
18503;SDS011;9381;54.244;10.074;2024-01-15T11:48:52;6.77;;;1.57;;
18503;SDS011;9381;54.244;10.074;2024-01-15T11:54:03;5.03;;;2.47;;
18503;SDS011;9381;54.244;10.074;2024-01-15T11:59:09;3.87;;;1.73;;
18503;SDS011;9381;54.244;10.074;2024-01-15T12:04:09;2.17;;;1.20;;
18503;SDS011;9381;54.244;10.074;2024-01-15T12:09:09;4.30;;;1.47;;
18503;SDS011;9381;54.244;10.074;2024-01-15T12:14:10;2.70;;;1.40;;
18503;SDS011;9381;54.244;10.074;2024-01-15T12:19:10;4.63;;;1.43;;
18503;SDS011;9381;54.244;10.074;2024-01-15T12:24:11;2.37;;;1.60;;
18503;SDS011;9381;54.244;10.074;2024-01-15T12:29:11;4.75;;;1.65;;
18503;SDS011;9381;54.244;10.074;2024-01-15T12:34:11;2.27;;;1.43;;
18503;SDS011;9381;54.244;10.074;2024-01-15T12:39:12;5.30;;;1.60;;
18503;SDS011;9381;54.244;10.074;2024-01-15T12:44:13;5.00;;;2.20;;
18503;SDS011;9381;54.244;10.074;2024-01-15T12:49:13;4.90;;;2.00;;
18503;SDS011;9381;54.244;10.074;2024-01-15T12:54:13;4.53;;;1.37;;
18503;SDS011;9381;54.244;10.074;2024-01-15T12:59:14;2.20;;;1.30;;
18503;SDS011;9381;54.244;10.074;2024-01-15T13:04:23;3.50;;;2.60;;
18503;SDS011;9381;54.244;10.074;2024-01-15T13:09:24;4.80;;;1.47;;
18503;SDS011;9381;54.244;10.074;2024-01-15T13:14:24;4.83;;;1.70;;
18503;SDS011;9381;54.244;10.074;2024-01-15T13:19:25;2.13;;;1.60;;
18503;SDS011;9381;54.244;10.074;2024-01-15T13:24:25;3.23;;;1.50;;
18503;SDS011;9381;54.244;10.074;2024-01-15T13:29:26;9.97;;;2.27;;
18503;SDS011;9381;54.244;10.074;2024-01-15T13:34:26;6.13;;;1.77;;
18503;SDS011;9381;54.244;10.074;2024-01-15T13:39:26;2.93;;;1.53;;
18503;SDS011;9381;54.244;10.074;2024-01-15T13:44:27;2.07;;;1.63;;
18503;SDS011;9381;54.244;10.074;2024-01-15T13:49:27;5.17;;;1.77;;
18503;SDS011;9381;54.244;10.074;2024-01-15T13:54:28;6.70;;;2.00;;
18503;SDS011;9381;54.244;10.074;2024-01-15T13:59:28;6.40;;;2.15;;
18503;SDS011;9381;54.244;10.074;2024-01-15T14:04:31;4.33;;;1.80;;
18503;SDS011;9381;54.244;10.074;2024-01-15T14:09:31;6.13;;;1.90;;
18503;SDS011;9381;54.244;10.074;2024-01-15T14:14:32;3.97;;;1.80;;
18503;SDS011;9381;54.244;10.074;2024-01-15T14:19:33;5.20;;;2.30;;
18503;SDS011;9381;54.244;10.074;2024-01-15T14:24:33;6.47;;;2.03;;
18503;SDS011;9381;54.244;10.074;2024-01-15T14:29:34;5.13;;;1.90;;
18503;SDS011;9381;54.244;10.074;2024-01-15T14:34:35;4.90;;;2.40;;
18503;SDS011;9381;54.244;10.074;2024-01-15T14:39:37;16.50;;;6.70;;
18503;SDS011;9381;54.244;10.074;2024-01-15T14:44:37;4.33;;;2.50;;
18503;SDS011;9381;54.244;10.074;2024-01-15T14:49:40;5.23;;;2.43;;
18503;SDS011;9381;54.244;10.074;2024-01-15T14:54:41;14.38;;;5.90;;
18503;SDS011;9381;54.244;10.074;2024-01-15T14:59:41;4.40;;;2.60;;
18503;SDS011;9381;54.244;10.074;2024-01-15T15:04:41;3.20;;;1.97;;
18503;SDS011;9381;54.244;10.074;2024-01-15T15:09:42;5.03;;;2.80;;
18503;SDS011;9381;54.244;10.074;2024-01-15T15:14:42;6.33;;;2.60;;
18503;SDS011;9381;54.244;10.074;2024-01-15T15:19:43;11.10;;;3.77;;
18503;SDS011;9381;54.244;10.074;2024-01-15T15:24:43;9.17;;;4.93;;
18503;SDS011;9381;54.244;10.074;2024-01-15T15:29:44;7.87;;;4.03;;
18503;SDS011;9381;54.244;10.074;2024-01-15T15:34:44;8.47;;;4.33;;
18503;SDS011;9381;54.244;10.074;2024-01-15T15:39:44;8.60;;;4.73;;
18503;SDS011;9381;54.244;10.074;2024-01-15T15:44:45;8.33;;;4.33;;
18503;SDS011;9381;54.244;10.074;2024-01-15T15:49:46;10.10;;;6.00;;
18503;SDS011;9381;54.244;10.074;2024-01-15T15:54:46;9.40;;;5.40;;
18503;SDS011;9381;54.244;10.074;2024-01-15T15:59:47;9.13;;;4.45;;
18503;SDS011;9381;54.244;10.074;2024-01-15T16:04:47;5.87;;;3.67;;
18503;SDS011;9381;54.244;10.074;2024-01-15T16:09:47;5.47;;;3.38;;
18503;SDS011;9381;54.244;10.074;2024-01-15T16:14:48;12.87;;;5.90;;
18503;SDS011;9381;54.244;10.074;2024-01-15T16:19:48;11.57;;;6.30;;
18503;SDS011;9381;54.244;10.074;2024-01-15T16:24:48;11.27;;;6.00;;
18503;SDS011;9381;54.244;10.074;2024-01-15T16:29:49;11.60;;;6.85;;
18503;SDS011;9381;54.244;10.074;2024-01-15T16:34:49;12.83;;;5.87;;
18503;SDS011;9381;54.244;10.074;2024-01-15T16:39:49;9.13;;;5.63;;
18503;SDS011;9381;54.244;10.074;2024-01-15T16:44:50;15.27;;;6.70;;
18503;SDS011;9381;54.244;10.074;2024-01-15T16:49:50;13.50;;;8.03;;
18503;SDS011;9381;54.244;10.074;2024-01-15T16:54:50;17.85;;;9.52;;
18503;SDS011;9381;54.244;10.074;2024-01-15T16:59:51;18.27;;;9.97;;
18503;SDS011;9381;54.244;10.074;2024-01-15T17:04:51;13.27;;;8.87;;
18503;SDS011;9381;54.244;10.074;2024-01-15T17:09:52;15.77;;;9.23;;
18503;SDS011;9381;54.244;10.074;2024-01-15T17:14:52;13.43;;;8.13;;
18503;SDS011;9381;54.244;10.074;2024-01-15T17:19:52;11.73;;;7.13;;
18503;SDS011;9381;54.244;10.074;2024-01-15T17:24:53;9.83;;;6.80;;
18503;SDS011;9381;54.244;10.074;2024-01-15T17:29:54;11.32;;;7.53;;
18503;SDS011;9381;54.244;10.074;2024-01-15T17:34:55;9.67;;;8.30;;
18503;SDS011;9381;54.244;10.074;2024-01-15T17:39:55;13.30;;;8.40;;
18503;SDS011;9381;54.244;10.074;2024-01-15T17:44:56;12.23;;;8.17;;
18503;SDS011;9381;54.244;10.074;2024-01-15T17:49:56;11.05;;;6.10;;
18503;SDS011;9381;54.244;10.074;2024-01-15T17:54:56;13.30;;;6.40;;
18503;SDS011;9381;54.244;10.074;2024-01-15T17:59:57;7.93;;;6.33;;
18503;SDS011;9381;54.244;10.074;2024-01-15T18:04:57;8.20;;;4.80;;
18503;SDS011;9381;54.244;10.074;2024-01-15T18:09:57;14.00;;;6.70;;
18503;SDS011;9381;54.244;10.074;2024-01-15T18:14:59;7.50;;;4.87;;
18503;SDS011;9381;54.244;10.074;2024-01-15T18:19:59;16.13;;;12.47;;
18503;SDS011;9381;54.244;10.074;2024-01-15T18:25:00;11.30;;;5.17;;
18503;SDS011;9381;54.244;10.074;2024-01-15T18:30:01;8.50;;;4.97;;
18503;SDS011;9381;54.244;10.074;2024-01-15T18:35:01;10.13;;;4.37;;
18503;SDS011;9381;54.244;10.074;2024-01-15T18:40:02;7.63;;;4.33;;
18503;SDS011;9381;54.244;10.074;2024-01-15T18:45:02;8.90;;;4.40;;
18503;SDS011;9381;54.244;10.074;2024-01-15T18:50:03;5.37;;;3.77;;
18503;SDS011;9381;54.244;10.074;2024-01-15T18:55:04;10.10;;;3.03;;
18503;SDS011;9381;54.244;10.074;2024-01-15T19:00:04;11.73;;;6.43;;
18503;SDS011;9381;54.244;10.074;2024-01-15T19:05:05;11.20;;;7.80;;
18503;SDS011;9381;54.244;10.074;2024-01-15T19:10:06;14.20;;;7.47;;
18503;SDS011;9381;54.244;10.074;2024-01-15T19:15:07;15.13;;;6.40;;
18503;SDS011;9381;54.244;10.074;2024-01-15T19:20:08;5.73;;;2.93;;
18503;SDS011;9381;54.244;10.074;2024-01-15T19:25:11;7.43;;;3.50;;
18503;SDS011;9381;54.244;10.074;2024-01-15T19:30:11;4.27;;;2.60;;
18503;SDS011;9381;54.244;10.074;2024-01-15T19:35:14;9.50;;;3.93;;
18503;SDS011;9381;54.244;10.074;2024-01-15T19:40:14;5.03;;;2.53;;
18503;SDS011;9381;54.244;10.074;2024-01-15T19:45:15;8.63;;;5.03;;
18503;SDS011;9381;54.244;10.074;2024-01-15T19:50:15;11.07;;;5.63;;
18503;SDS011;9381;54.244;10.074;2024-01-15T19:55:16;7.57;;;3.80;;
18503;SDS011;9381;54.244;10.074;2024-01-15T20:00:16;11.45;;;4.72;;
18503;SDS011;9381;54.244;10.074;2024-01-15T20:05:17;5.33;;;3.40;;
18503;SDS011;9381;54.244;10.074;2024-01-15T20:10:17;9.93;;;4.73;;
18503;SDS011;9381;54.244;10.074;2024-01-15T20:15:18;9.13;;;5.10;;
18503;SDS011;9381;54.244;10.074;2024-01-15T20:20:19;10.87;;;5.10;;
18503;SDS011;9381;54.244;10.074;2024-01-15T20:25:19;4.17;;;3.50;;
18503;SDS011;9381;54.244;10.074;2024-01-15T20:30:20;6.97;;;3.80;;
18503;SDS011;9381;54.244;10.074;2024-01-15T20:35:21;10.63;;;6.20;;
18503;SDS011;9381;54.244;10.074;2024-01-15T20:40:22;16.23;;;7.03;;
18503;SDS011;9381;54.244;10.074;2024-01-15T20:45:22;17.20;;;7.27;;
18503;SDS011;9381;54.244;10.074;2024-01-15T20:50:22;18.33;;;8.87;;
18503;SDS011;9381;54.244;10.074;2024-01-15T20:55:23;13.33;;;7.47;;
18503;SDS011;9381;54.244;10.074;2024-01-15T21:00:23;7.55;;;4.07;;
18503;SDS011;9381;54.244;10.074;2024-01-15T21:05:24;11.00;;;5.70;;
18503;SDS011;9381;54.244;10.074;2024-01-15T21:10:24;6.97;;;3.70;;
18503;SDS011;9381;54.244;10.074;2024-01-15T21:15:24;14.23;;;6.80;;
18503;SDS011;9381;54.244;10.074;2024-01-15T21:20:25;6.20;;;5.60;;
18503;SDS011;9381;54.244;10.074;2024-01-15T21:25:26;7.87;;;4.93;;
18503;SDS011;9381;54.244;10.074;2024-01-15T21:30:27;4.70;;;3.67;;
18503;SDS011;9381;54.244;10.074;2024-01-15T21:35:27;10.73;;;3.93;;
18503;SDS011;9381;54.244;10.074;2024-01-15T21:40:27;5.77;;;3.80;;
18503;SDS011;9381;54.244;10.074;2024-01-15T21:45:28;6.67;;;4.10;;
18503;SDS011;9381;54.244;10.074;2024-01-15T21:50:28;6.57;;;4.40;;
18503;SDS011;9381;54.244;10.074;2024-01-15T21:55:29;7.57;;;4.33;;
18503;SDS011;9381;54.244;10.074;2024-01-15T22:00:29;7.72;;;4.47;;
18503;SDS011;9381;54.244;10.074;2024-01-15T22:05:29;8.77;;;5.60;;
18503;SDS011;9381;54.244;10.074;2024-01-15T22:10:30;7.32;;;4.93;;
18503;SDS011;9381;54.244;10.074;2024-01-15T22:15:30;11.03;;;5.80;;
18503;SDS011;9381;54.244;10.074;2024-01-15T22:20:30;8.60;;;5.90;;
18503;SDS011;9381;54.244;10.074;2024-01-15T22:25:31;6.90;;;5.27;;
18503;SDS011;9381;54.244;10.074;2024-01-15T22:30:34;10.37;;;5.70;;
18503;SDS011;9381;54.244;10.074;2024-01-15T22:35:34;8.83;;;5.50;;
18503;SDS011;9381;54.244;10.074;2024-01-15T22:40:34;9.50;;;5.68;;
18503;SDS011;9381;54.244;10.074;2024-01-15T22:45:35;9.27;;;5.97;;
18503;SDS011;9381;54.244;10.074;2024-01-15T22:50:35;14.03;;;8.17;;
18503;SDS011;9381;54.244;10.074;2024-01-15T22:55:35;9.02;;;5.80;;
18503;SDS011;9381;54.244;10.074;2024-01-15T23:00:36;8.20;;;5.67;;
18503;SDS011;9381;54.244;10.074;2024-01-15T23:05:39;6.93;;;4.73;;
18503;SDS011;9381;54.244;10.074;2024-01-15T23:10:39;7.53;;;4.03;;
18503;SDS011;9381;54.244;10.074;2024-01-15T23:15:40;5.00;;;3.90;;
18503;SDS011;9381;54.244;10.074;2024-01-15T23:20:40;5.80;;;3.67;;
18503;SDS011;9381;54.244;10.074;2024-01-15T23:25:40;6.53;;;3.47;;
18503;SDS011;9381;54.244;10.074;2024-01-15T23:30:41;5.03;;;3.50;;
18503;SDS011;9381;54.244;10.074;2024-01-15T23:35:41;7.37;;;4.10;;
18503;SDS011;9381;54.244;10.074;2024-01-15T23:40:41;6.63;;;4.53;;
18503;SDS011;9381;54.244;10.074;2024-01-15T23:45:42;11.73;;;4.83;;
18503;SDS011;9381;54.244;10.074;2024-01-15T23:50:42;6.60;;;4.33;;
18503;SDS011;9381;54.244;10.074;2024-01-15T23:55:42;4.80;;;4.23;;
